sensor_id;sensor_type;location;lat;lon;timestamp;temperature;humidity
10089;DHT22;51898;49.864;8.550;2023-06-24T00:02:54;17.60;68.30
10089;DHT22;51898;49.864;8.550;2023-06-24T00:05:56;17.50;68.60
10089;DHT22;51898;49.864;8.550;2023-06-24T00:08:58;17.50;68.80
10089;DHT22;51898;49.864;8.550;2023-06-24T00:12:03;17.50;69.00
10089;DHT22;51898;49.864;8.550;2023-06-24T00:15:08;17.40;69.10
10089;DHT22;51898;49.864;8.550;2023-06-24T00:18:13;17.40;69.30
10089;DHT22;51898;49.864;8.550;2023-06-24T00:21:15;17.30;69.30
10089;DHT22;51898;49.864;8.550;2023-06-24T00:24:22;17.30;69.60
10089;DHT22;51898;49.864;8.550;2023-06-24T00:27:27;17.20;69.90
10089;DHT22;51898;49.864;8.550;2023-06-24T00:30:28;17.20;70.00
10089;DHT22;51898;49.864;8.550;2023-06-24T00:33:30;17.20;70.00
10089;DHT22;51898;49.864;8.550;2023-06-24T00:36:37;17.20;70.10
10089;DHT22;51898;49.864;8.550;2023-06-24T00:39:39;17.10;70.30
10089;DHT22;51898;49.864;8.550;2023-06-24T00:42:45;17.10;70.30
10089;DHT22;51898;49.864;8.550;2023-06-24T00:45:47;17.10;70.40
10089;DHT22;51898;49.864;8.550;2023-06-24T00:48:51;17.10;70.50
10089;DHT22;51898;49.864;8.550;2023-06-24T00:51:53;17.10;70.50
10089;DHT22;51898;49.864;8.550;2023-06-24T00:54:54;17.10;70.50
10089;DHT22;51898;49.864;8.550;2023-06-24T00:57:57;17.10;70.50
10089;DHT22;51898;49.864;8.550;2023-06-24T01:01:01;17.10;70.50
10089;DHT22;51898;49.864;8.550;2023-06-24T01:04:04;17.00;70.80
10089;DHT22;51898;49.864;8.550;2023-06-24T01:07:06;17.00;71.00
10089;DHT22;51898;49.864;8.550;2023-06-24T01:10:09;16.90;70.80
10089;DHT22;51898;49.864;8.550;2023-06-24T01:13:11;16.90;71.10
10089;DHT22;51898;49.864;8.550;2023-06-24T01:16:26;16.90;71.30
10089;DHT22;51898;49.864;8.550;2023-06-24T01:23:02;16.90;71.60
10089;DHT22;51898;49.864;8.550;2023-06-24T01:26:32;16.80;71.60
10089;DHT22;51898;49.864;8.550;2023-06-24T01:29:56;16.80;71.80
10089;DHT22;51898;49.864;8.550;2023-06-24T01:33:04;16.70;72.20
10089;DHT22;51898;49.864;8.550;2023-06-24T01:36:12;16.70;72.60
10089;DHT22;51898;49.864;8.550;2023-06-24T01:39:16;16.60;73.10
10089;DHT22;51898;49.864;8.550;2023-06-24T01:42:21;16.50;73.30
10089;DHT22;51898;49.864;8.550;2023-06-24T01:45:25;16.50;73.50
10089;DHT22;51898;49.864;8.550;2023-06-24T01:48:29;16.40;73.70
10089;DHT22;51898;49.864;8.550;2023-06-24T01:51:35;16.40;73.90
10089;DHT22;51898;49.864;8.550;2023-06-24T01:54:39;16.30;74.00
10089;DHT22;51898;49.864;8.550;2023-06-24T01:57:44;16.30;74.20
10089;DHT22;51898;49.864;8.550;2023-06-24T02:00:47;16.10;74.30
10089;DHT22;51898;49.864;8.550;2023-06-24T02:03:50;16.10;74.50
10089;DHT22;51898;49.864;8.550;2023-06-24T02:06:53;16.10;74.60
10089;DHT22;51898;49.864;8.550;2023-06-24T02:09:56;16.00;74.60
10089;DHT22;51898;49.864;8.550;2023-06-24T02:12:59;16.00;74.90
10089;DHT22;51898;49.864;8.550;2023-06-24T02:16:02;15.90;75.30
10089;DHT22;51898;49.864;8.550;2023-06-24T02:19:07;16.00;75.60
10089;DHT22;51898;49.864;8.550;2023-06-24T02:22:12;16.00;75.40
10089;DHT22;51898;49.864;8.550;2023-06-24T02:25:14;16.00;75.30
10089;DHT22;51898;49.864;8.550;2023-06-24T02:28:17;16.00;75.20
10089;DHT22;51898;49.864;8.550;2023-06-24T02:31:19;15.90;75.30
10089;DHT22;51898;49.864;8.550;2023-06-24T02:34:23;15.90;75.30
10089;DHT22;51898;49.864;8.550;2023-06-24T02:37:25;15.90;75.40
10089;DHT22;51898;49.864;8.550;2023-06-24T02:40:27;15.80;75.20
10089;DHT22;51898;49.864;8.550;2023-06-24T02:43:29;15.80;75.50
10089;DHT22;51898;49.864;8.550;2023-06-24T02:46:33;15.80;75.60
10089;DHT22;51898;49.864;8.550;2023-06-24T02:49:36;15.90;75.80
10089;DHT22;51898;49.864;8.550;2023-06-24T02:52:38;15.80;75.90
10089;DHT22;51898;49.864;8.550;2023-06-24T02:55:41;15.80;76.10
10089;DHT22;51898;49.864;8.550;2023-06-24T02:58:43;15.80;76.00
10089;DHT22;51898;49.864;8.550;2023-06-24T03:01:46;15.80;76.10
10089;DHT22;51898;49.864;8.550;2023-06-24T03:04:50;15.80;76.90
10089;DHT22;51898;49.864;8.550;2023-06-24T03:07:52;15.70;76.80
10089;DHT22;51898;49.864;8.550;2023-06-24T03:10:55;15.70;77.10
10089;DHT22;51898;49.864;8.550;2023-06-24T03:13:57;15.60;77.60
10089;DHT22;51898;49.864;8.550;2023-06-24T03:16:59;15.50;77.90
10089;DHT22;51898;49.864;8.550;2023-06-24T03:20:01;15.50;77.90
10089;DHT22;51898;49.864;8.550;2023-06-24T03:23:08;15.40;77.80
10089;DHT22;51898;49.864;8.550;2023-06-24T03:26:09;15.50;77.90
10089;DHT22;51898;49.864;8.550;2023-06-24T03:29:11;15.50;78.20
10089;DHT22;51898;49.864;8.550;2023-06-24T03:32:13;15.50;78.10
10089;DHT22;51898;49.864;8.550;2023-06-24T03:35:15;15.50;77.90
10089;DHT22;51898;49.864;8.550;2023-06-24T03:38:16;15.50;77.90
10089;DHT22;51898;49.864;8.550;2023-06-24T03:41:18;15.60;78.30
10089;DHT22;51898;49.864;8.550;2023-06-24T03:44:20;15.50;78.40
10089;DHT22;51898;49.864;8.550;2023-06-24T03:47:22;15.50;78.30
10089;DHT22;51898;49.864;8.550;2023-06-24T03:50:23;15.60;78.20
10089;DHT22;51898;49.864;8.550;2023-06-24T03:53:25;15.70;77.80
10089;DHT22;51898;49.864;8.550;2023-06-24T03:56:26;15.90;77.20
10089;DHT22;51898;49.864;8.550;2023-06-24T03:59:28;16.00;76.30
10089;DHT22;51898;49.864;8.550;2023-06-24T04:02:30;16.20;75.40
10089;DHT22;51898;49.864;8.550;2023-06-24T04:05:31;16.30;74.90
10089;DHT22;51898;49.864;8.550;2023-06-24T04:08:33;16.50;74.40
10089;DHT22;51898;49.864;8.550;2023-06-24T04:11:35;16.80;73.70
10089;DHT22;51898;49.864;8.550;2023-06-24T04:14:37;17.10;72.70
10089;DHT22;51898;49.864;8.550;2023-06-24T04:17:38;17.50;71.30
10089;DHT22;51898;49.864;8.550;2023-06-24T04:20:40;17.90;69.90
10089;DHT22;51898;49.864;8.550;2023-06-24T04:23:42;18.40;68.30
10089;DHT22;51898;49.864;8.550;2023-06-24T04:26:44;18.80;66.80
10089;DHT22;51898;49.864;8.550;2023-06-24T04:29:45;19.20;65.80
10089;DHT22;51898;49.864;8.550;2023-06-24T04:32:47;19.60;64.70
10089;DHT22;51898;49.864;8.550;2023-06-24T04:35:49;19.90;63.40
10089;DHT22;51898;49.864;8.550;2023-06-24T04:38:52;20.20;62.40
10089;DHT22;51898;49.864;8.550;2023-06-24T04:41:54;20.60;61.50
10089;DHT22;51898;49.864;8.550;2023-06-24T04:44:56;20.80;60.60
10089;DHT22;51898;49.864;8.550;2023-06-24T04:47:57;21.10;59.90
10089;DHT22;51898;49.864;8.550;2023-06-24T04:50:59;21.20;59.60
10089;DHT22;51898;49.864;8.550;2023-06-24T04:54:00;21.30;59.30
10089;DHT22;51898;49.864;8.550;2023-06-24T04:57:05;21.50;59.00
10089;DHT22;51898;49.864;8.550;2023-06-24T05:00:08;21.60;58.60
10089;DHT22;51898;49.864;8.550;2023-06-24T05:03:10;21.70;58.70
10089;DHT22;51898;49.864;8.550;2023-06-24T05:06:11;21.70;58.80
10089;DHT22;51898;49.864;8.550;2023-06-24T05:09:13;21.70;59.10
10089;DHT22;51898;49.864;8.550;2023-06-24T05:12:15;21.70;58.90
10089;DHT22;51898;49.864;8.550;2023-06-24T05:15:16;21.90;59.20
10089;DHT22;51898;49.864;8.550;2023-06-24T05:18:18;22.30;58.50
10089;DHT22;51898;49.864;8.550;2023-06-24T05:21:20;22.90;57.00
10089;DHT22;51898;49.864;8.550;2023-06-24T05:24:22;23.20;56.20
10089;DHT22;51898;49.864;8.550;2023-06-24T05:27:23;23.20;55.60
10089;DHT22;51898;49.864;8.550;2023-06-24T05:30:25;23.00;55.40
10089;DHT22;51898;49.864;8.550;2023-06-24T05:33:27;22.70;56.70
10089;DHT22;51898;49.864;8.550;2023-06-24T05:36:28;22.40;57.80
10089;DHT22;51898;49.864;8.550;2023-06-24T05:39:31;22.10;58.60
10089;DHT22;51898;49.864;8.550;2023-06-24T05:42:33;22.00;59.50
10089;DHT22;51898;49.864;8.550;2023-06-24T05:45:35;21.90;60.00
10089;DHT22;51898;49.864;8.550;2023-06-24T05:48:37;21.80;60.60
10089;DHT22;51898;49.864;8.550;2023-06-24T05:51:39;21.70;61.20
10089;DHT22;51898;49.864;8.550;2023-06-24T05:54:40;21.60;61.40
10089;DHT22;51898;49.864;8.550;2023-06-24T05:57:42;21.70;61.20
10089;DHT22;51898;49.864;8.550;2023-06-24T06:00:44;21.90;61.00
10089;DHT22;51898;49.864;8.550;2023-06-24T06:03:45;22.00;60.70
10089;DHT22;51898;49.864;8.550;2023-06-24T06:06:47;22.10;61.00
10089;DHT22;51898;49.864;8.550;2023-06-24T06:09:49;22.10;60.70
10089;DHT22;51898;49.864;8.550;2023-06-24T06:12:50;22.00;61.00
10089;DHT22;51898;49.864;8.550;2023-06-24T06:15:52;22.10;60.60
10089;DHT22;51898;49.864;8.550;2023-06-24T06:18:54;22.20;60.60
10089;DHT22;51898;49.864;8.550;2023-06-24T06:21:55;22.20;61.00
10089;DHT22;51898;49.864;8.550;2023-06-24T06:24:57;22.50;60.40
10089;DHT22;51898;49.864;8.550;2023-06-24T06:27:58;22.70;59.60
10089;DHT22;51898;49.864;8.550;2023-06-24T06:31:00;22.80;59.00
10089;DHT22;51898;49.864;8.550;2023-06-24T06:34:02;22.80;58.50
10089;DHT22;51898;49.864;8.550;2023-06-24T06:37:05;22.80;59.10
10089;DHT22;51898;49.864;8.550;2023-06-24T06:40:07;23.00;58.50
10089;DHT22;51898;49.864;8.550;2023-06-24T06:43:09;23.00;58.40
10089;DHT22;51898;49.864;8.550;2023-06-24T06:46:10;23.10;58.50
10089;DHT22;51898;49.864;8.550;2023-06-24T06:49:12;23.30;58.30
10089;DHT22;51898;49.864;8.550;2023-06-24T06:52:14;23.30;57.80
10089;DHT22;51898;49.864;8.550;2023-06-24T06:55:18;23.50;56.90
10089;DHT22;51898;49.864;8.550;2023-06-24T06:58:20;23.60;56.50
10089;DHT22;51898;49.864;8.550;2023-06-24T07:01:21;23.40;57.00
10089;DHT22;51898;49.864;8.550;2023-06-24T07:04:23;23.70;56.20
10089;DHT22;51898;49.864;8.550;2023-06-24T07:07:25;23.80;55.40
10089;DHT22;51898;49.864;8.550;2023-06-24T07:10:27;24.00;55.80
10089;DHT22;51898;49.864;8.550;2023-06-24T07:13:29;24.00;54.40
10089;DHT22;51898;49.864;8.550;2023-06-24T07:16:30;24.20;54.70
10089;DHT22;51898;49.864;8.550;2023-06-24T07:19:32;24.40;54.80
10089;DHT22;51898;49.864;8.550;2023-06-24T07:22:34;24.50;54.10
10089;DHT22;51898;49.864;8.550;2023-06-24T07:25:36;24.60;53.70
10089;DHT22;51898;49.864;8.550;2023-06-24T07:28:37;24.60;54.10
10089;DHT22;51898;49.864;8.550;2023-06-24T07:31:39;24.50;54.80
10089;DHT22;51898;49.864;8.550;2023-06-24T07:34:41;24.50;54.20
10089;DHT22;51898;49.864;8.550;2023-06-24T07:37:42;24.60;53.90
10089;DHT22;51898;49.864;8.550;2023-06-24T07:40:44;24.80;53.00
10089;DHT22;51898;49.864;8.550;2023-06-24T07:43:46;25.10;52.60
10089;DHT22;51898;49.864;8.550;2023-06-24T07:46:47;25.10;52.00
10089;DHT22;51898;49.864;8.550;2023-06-24T07:49:50;25.20;51.80
10089;DHT22;51898;49.864;8.550;2023-06-24T07:52:51;25.20;52.10
10089;DHT22;51898;49.864;8.550;2023-06-24T07:55:53;25.30;51.70
10089;DHT22;51898;49.864;8.550;2023-06-24T07:58:55;25.40;51.50
10089;DHT22;51898;49.864;8.550;2023-06-24T08:01:56;25.40;50.30
10089;DHT22;51898;49.864;8.550;2023-06-24T08:04:58;25.50;50.00
10089;DHT22;51898;49.864;8.550;2023-06-24T08:08:00;25.60;50.50
10089;DHT22;51898;49.864;8.550;2023-06-24T08:11:03;25.70;49.30
10089;DHT22;51898;49.864;8.550;2023-06-24T08:14:04;25.90;48.40
10089;DHT22;51898;49.864;8.550;2023-06-24T08:17:06;25.90;48.70
10089;DHT22;51898;49.864;8.550;2023-06-24T08:20:08;26.00;48.60
10089;DHT22;51898;49.864;8.550;2023-06-24T08:23:10;26.20;48.80
10089;DHT22;51898;49.864;8.550;2023-06-24T08:26:12;26.40;48.30
10089;DHT22;51898;49.864;8.550;2023-06-24T08:29:19;26.60;47.70
10089;DHT22;51898;49.864;8.550;2023-06-24T08:32:21;26.80;46.40
10089;DHT22;51898;49.864;8.550;2023-06-24T08:35:22;26.70;46.30
10089;DHT22;51898;49.864;8.550;2023-06-24T08:38:24;26.40;46.80
10089;DHT22;51898;49.864;8.550;2023-06-24T08:41:26;26.50;46.70
10089;DHT22;51898;49.864;8.550;2023-06-24T08:44:28;26.70;46.60
10089;DHT22;51898;49.864;8.550;2023-06-24T08:47:33;27.00;46.60
10089;DHT22;51898;49.864;8.550;2023-06-24T08:50:39;27.30;46.00
10089;DHT22;51898;49.864;8.550;2023-06-24T08:53:43;27.50;44.70
10089;DHT22;51898;49.864;8.550;2023-06-24T08:56:48;27.30;44.50
10089;DHT22;51898;49.864;8.550;2023-06-24T08:59:49;27.30;44.70
10089;DHT22;51898;49.864;8.550;2023-06-24T09:02:51;27.50;44.10
10089;DHT22;51898;49.864;8.550;2023-06-24T09:05:53;27.30;44.10
10089;DHT22;51898;49.864;8.550;2023-06-24T09:08:57;27.50;43.80
10089;DHT22;51898;49.864;8.550;2023-06-24T09:12:01;27.60;43.10
10089;DHT22;51898;49.864;8.550;2023-06-24T09:15:03;27.60;43.50
10089;DHT22;51898;49.864;8.550;2023-06-24T09:18:05;27.60;43.40
10089;DHT22;51898;49.864;8.550;2023-06-24T09:21:07;27.80;42.40
10089;DHT22;51898;49.864;8.550;2023-06-24T09:24:09;27.70;42.30
10089;DHT22;51898;49.864;8.550;2023-06-24T09:27:15;27.60;42.50
10089;DHT22;51898;49.864;8.550;2023-06-24T09:30:22;27.50;42.90
10089;DHT22;51898;49.864;8.550;2023-06-24T09:33:24;27.50;42.70
10089;DHT22;51898;49.864;8.550;2023-06-24T09:36:26;27.80;41.90
10089;DHT22;51898;49.864;8.550;2023-06-24T09:39:37;28.00;41.60
10089;DHT22;51898;49.864;8.550;2023-06-24T09:42:53;28.10;42.00
10089;DHT22;51898;49.864;8.550;2023-06-24T09:45:57;28.20;41.60
10089;DHT22;51898;49.864;8.550;2023-06-24T09:48:59;28.20;41.60
10089;DHT22;51898;49.864;8.550;2023-06-24T09:52:01;28.40;41.60
10089;DHT22;51898;49.864;8.550;2023-06-24T09:55:05;28.60;41.20
10089;DHT22;51898;49.864;8.550;2023-06-24T09:58:08;28.50;41.20
10089;DHT22;51898;49.864;8.550;2023-06-24T10:01:11;28.70;41.10
10089;DHT22;51898;49.864;8.550;2023-06-24T10:04:18;28.70;40.40
10089;DHT22;51898;49.864;8.550;2023-06-24T10:07:20;28.70;40.30
10089;DHT22;51898;49.864;8.550;2023-06-24T10:10:22;28.70;40.00
10089;DHT22;51898;49.864;8.550;2023-06-24T10:13:24;28.60;39.90
10089;DHT22;51898;49.864;8.550;2023-06-24T10:16:26;28.50;40.70
10089;DHT22;51898;49.864;8.550;2023-06-24T10:19:28;28.60;39.90
10089;DHT22;51898;49.864;8.550;2023-06-24T10:22:30;28.80;39.90
10089;DHT22;51898;49.864;8.550;2023-06-24T10:25:36;29.00;39.20
10089;DHT22;51898;49.864;8.550;2023-06-24T10:29:08;29.00;39.10
10089;DHT22;51898;49.864;8.550;2023-06-24T10:32:10;29.00;38.90
10089;DHT22;51898;49.864;8.550;2023-06-24T10:35:25;29.20;38.50
10089;DHT22;51898;49.864;8.550;2023-06-24T10:38:27;29.10;38.30
10089;DHT22;51898;49.864;8.550;2023-06-24T10:41:29;28.90;38.40
10089;DHT22;51898;49.864;8.550;2023-06-24T10:44:45;28.90;38.90
10089;DHT22;51898;49.864;8.550;2023-06-24T10:47:49;29.00;38.60
10089;DHT22;51898;49.864;8.550;2023-06-24T10:50:55;29.30;38.40
10089;DHT22;51898;49.864;8.550;2023-06-24T10:53:57;29.40;38.10
10089;DHT22;51898;49.864;8.550;2023-06-24T10:56:59;29.20;38.10
10089;DHT22;51898;49.864;8.550;2023-06-24T11:00:03;28.70;38.80
10089;DHT22;51898;49.864;8.550;2023-06-24T11:03:16;28.50;39.30
10089;DHT22;51898;49.864;8.550;2023-06-24T11:06:18;28.60;39.60
10089;DHT22;51898;49.864;8.550;2023-06-24T11:09:20;28.70;39.50
10089;DHT22;51898;49.864;8.550;2023-06-24T11:12:31;29.00;39.10
10089;DHT22;51898;49.864;8.550;2023-06-24T11:15:33;29.10;38.20
10089;DHT22;51898;49.864;8.550;2023-06-24T11:18:38;29.00;38.20
10089;DHT22;51898;49.864;8.550;2023-06-24T11:21:39;29.00;38.30
10089;DHT22;51898;49.864;8.550;2023-06-24T11:24:41;29.20;38.30
10089;DHT22;51898;49.864;8.550;2023-06-24T11:27:43;29.20;38.10
10089;DHT22;51898;49.864;8.550;2023-06-24T11:30:45;29.40;38.10
10089;DHT22;51898;49.864;8.550;2023-06-24T11:33:50;29.70;38.00
10089;DHT22;51898;49.864;8.550;2023-06-24T11:36:51;30.00;37.20
10089;DHT22;51898;49.864;8.550;2023-06-24T11:40:03;30.20;36.90
10089;DHT22;51898;49.864;8.550;2023-06-24T11:43:07;30.50;37.00
10089;DHT22;51898;49.864;8.550;2023-06-24T11:46:09;30.90;36.00
10089;DHT22;51898;49.864;8.550;2023-06-24T11:49:10;31.20;35.60
10089;DHT22;51898;49.864;8.550;2023-06-24T11:52:12;31.20;35.40
10089;DHT22;51898;49.864;8.550;2023-06-24T11:55:17;31.20;35.20
10089;DHT22;51898;49.864;8.550;2023-06-24T11:58:19;31.20;35.40
10089;DHT22;51898;49.864;8.550;2023-06-24T12:01:21;31.40;35.10
10089;DHT22;51898;49.864;8.550;2023-06-24T12:04:33;31.40;34.80
10089;DHT22;51898;49.864;8.550;2023-06-24T12:07:38;31.30;34.90
10089;DHT22;51898;49.864;8.550;2023-06-24T12:10:43;31.40;34.90
10089;DHT22;51898;49.864;8.550;2023-06-24T12:13:45;31.40;34.80
10089;DHT22;51898;49.864;8.550;2023-06-24T12:16:47;31.30;34.90
10089;DHT22;51898;49.864;8.550;2023-06-24T12:19:49;31.40;34.80
10089;DHT22;51898;49.864;8.550;2023-06-24T12:22:51;31.60;34.00
10089;DHT22;51898;49.864;8.550;2023-06-24T12:25:53;31.70;33.80
10089;DHT22;51898;49.864;8.550;2023-06-24T12:28:55;31.70;33.80
10089;DHT22;51898;49.864;8.550;2023-06-24T12:31:59;31.70;33.70
10089;DHT22;51898;49.864;8.550;2023-06-24T12:35:02;32.00;33.40
10089;DHT22;51898;49.864;8.550;2023-06-24T12:38:04;32.00;32.80
10089;DHT22;51898;49.864;8.550;2023-06-24T12:41:06;32.10;33.30
10089;DHT22;51898;49.864;8.550;2023-06-24T12:44:08;32.30;33.10
10089;DHT22;51898;49.864;8.550;2023-06-24T12:47:09;32.20;33.50
10089;DHT22;51898;49.864;8.550;2023-06-24T12:50:11;32.10;33.20
10089;DHT22;51898;49.864;8.550;2023-06-24T12:53:13;32.00;33.10
10089;DHT22;51898;49.864;8.550;2023-06-24T12:56:17;31.50;33.50
10089;DHT22;51898;49.864;8.550;2023-06-24T12:59:18;31.50;34.00
10089;DHT22;51898;49.864;8.550;2023-06-24T13:02:20;31.70;33.60
10089;DHT22;51898;49.864;8.550;2023-06-24T13:05:22;31.80;33.10
10089;DHT22;51898;49.864;8.550;2023-06-24T13:08:23;31.80;33.00
10089;DHT22;51898;49.864;8.550;2023-06-24T13:11:25;31.90;33.10
10089;DHT22;51898;49.864;8.550;2023-06-24T13:14:27;32.00;32.70
10089;DHT22;51898;49.864;8.550;2023-06-24T13:17:30;32.30;31.70
10089;DHT22;51898;49.864;8.550;2023-06-24T13:20:31;32.50;31.40
10089;DHT22;51898;49.864;8.550;2023-06-24T13:23:34;32.60;30.80
10089;DHT22;51898;49.864;8.550;2023-06-24T13:26:37;32.50;30.50
10089;DHT22;51898;49.864;8.550;2023-06-24T13:29:39;32.70;30.00
10089;DHT22;51898;49.864;8.550;2023-06-24T13:32:40;32.80;30.30
10089;DHT22;51898;49.864;8.550;2023-06-24T13:35:42;32.70;30.40
10089;DHT22;51898;49.864;8.550;2023-06-24T13:38:46;32.80;30.10
10089;DHT22;51898;49.864;8.550;2023-06-24T13:41:47;33.00;29.90
10089;DHT22;51898;49.864;8.550;2023-06-24T13:44:49;33.10;29.80
10089;DHT22;51898;49.864;8.550;2023-06-24T13:47:51;33.10;29.50
10089;DHT22;51898;49.864;8.550;2023-06-24T13:50:52;33.20;29.60
10089;DHT22;51898;49.864;8.550;2023-06-24T13:53:55;33.10;29.30
10089;DHT22;51898;49.864;8.550;2023-06-24T13:56:57;32.80;29.40
10089;DHT22;51898;49.864;8.550;2023-06-24T13:59:59;33.00;29.60
10089;DHT22;51898;49.864;8.550;2023-06-24T14:03:00;33.00;30.10
10089;DHT22;51898;49.864;8.550;2023-06-24T14:06:02;33.50;29.80
10089;DHT22;51898;49.864;8.550;2023-06-24T14:09:04;33.90;29.00
10089;DHT22;51898;49.864;8.550;2023-06-24T14:12:07;34.20;28.60
10089;DHT22;51898;49.864;8.550;2023-06-24T14:15:10;34.10;28.20
10089;DHT22;51898;49.864;8.550;2023-06-24T14:18:12;33.80;28.50
10089;DHT22;51898;49.864;8.550;2023-06-24T14:21:13;33.70;28.70
10089;DHT22;51898;49.864;8.550;2023-06-24T14:24:15;33.50;28.90
10089;DHT22;51898;49.864;8.550;2023-06-24T14:27:18;33.90;28.50
10089;DHT22;51898;49.864;8.550;2023-06-24T14:30:19;34.30;28.20
10089;DHT22;51898;49.864;8.550;2023-06-24T14:33:21;34.60;27.90
10089;DHT22;51898;49.864;8.550;2023-06-24T14:36:23;34.50;27.60
10089;DHT22;51898;49.864;8.550;2023-06-24T14:39:25;34.40;27.80
10089;DHT22;51898;49.864;8.550;2023-06-24T14:42:29;34.30;27.80
10089;DHT22;51898;49.864;8.550;2023-06-24T14:45:30;33.80;28.30
10089;DHT22;51898;49.864;8.550;2023-06-24T14:48:32;33.40;28.70
10089;DHT22;51898;49.864;8.550;2023-06-24T14:51:34;33.10;28.70
10089;DHT22;51898;49.864;8.550;2023-06-24T14:54:35;32.80;29.70
10089;DHT22;51898;49.864;8.550;2023-06-24T14:57:37;32.60;30.20
10089;DHT22;51898;49.864;8.550;2023-06-24T15:00:40;32.20;30.80
10089;DHT22;51898;49.864;8.550;2023-06-24T15:03:41;31.80;31.00
10089;DHT22;51898;49.864;8.550;2023-06-24T15:06:46;31.50;31.80
10089;DHT22;51898;49.864;8.550;2023-06-24T15:09:48;31.20;32.10
10089;DHT22;51898;49.864;8.550;2023-06-24T15:12:49;31.40;31.80
10089;DHT22;51898;49.864;8.550;2023-06-24T15:15:51;31.60;31.80
10089;DHT22;51898;49.864;8.550;2023-06-24T15:18:57;31.90;31.00
10089;DHT22;51898;49.864;8.550;2023-06-24T15:21:58;32.40;30.60
10089;DHT22;51898;49.864;8.550;2023-06-24T15:25:00;32.90;30.20
10089;DHT22;51898;49.864;8.550;2023-06-24T15:28:02;32.90;29.90
10089;DHT22;51898;49.864;8.550;2023-06-24T15:31:03;32.80;30.30
10089;DHT22;51898;49.864;8.550;2023-06-24T15:34:05;33.20;30.10
10089;DHT22;51898;49.864;8.550;2023-06-24T15:37:07;33.10;30.40
10089;DHT22;51898;49.864;8.550;2023-06-24T15:40:30;33.20;29.80
10089;DHT22;51898;49.864;8.550;2023-06-24T15:43:31;33.50;29.60
10089;DHT22;51898;49.864;8.550;2023-06-24T15:46:33;33.60;29.40
10089;DHT22;51898;49.864;8.550;2023-06-24T15:49:35;33.80;29.60
10089;DHT22;51898;49.864;8.550;2023-06-24T15:52:36;33.90;29.00
10089;DHT22;51898;49.864;8.550;2023-06-24T15:55:38;34.10;29.10
10089;DHT22;51898;49.864;8.550;2023-06-24T15:58:42;34.30;28.80
10089;DHT22;51898;49.864;8.550;2023-06-24T16:01:44;34.20;28.90
10089;DHT22;51898;49.864;8.550;2023-06-24T16:04:46;34.30;29.00
10089;DHT22;51898;49.864;8.550;2023-06-24T16:07:48;34.10;29.00
10089;DHT22;51898;49.864;8.550;2023-06-24T16:10:49;34.00;29.00
10089;DHT22;51898;49.864;8.550;2023-06-24T16:13:51;33.80;29.40
10089;DHT22;51898;49.864;8.550;2023-06-24T16:16:53;33.80;29.30
10089;DHT22;51898;49.864;8.550;2023-06-24T16:19:55;33.80;29.40
10089;DHT22;51898;49.864;8.550;2023-06-24T16:22:57;33.70;29.60
10089;DHT22;51898;49.864;8.550;2023-06-24T16:25:58;33.80;29.40
10089;DHT22;51898;49.864;8.550;2023-06-24T16:29:02;34.00;29.40
10089;DHT22;51898;49.864;8.550;2023-06-24T16:32:04;33.70;29.40
10089;DHT22;51898;49.864;8.550;2023-06-24T16:35:06;33.70;29.40
10089;DHT22;51898;49.864;8.550;2023-06-24T16:38:09;34.00;29.10
10089;DHT22;51898;49.864;8.550;2023-06-24T16:41:10;34.20;28.80
10089;DHT22;51898;49.864;8.550;2023-06-24T16:44:13;33.80;29.00
10089;DHT22;51898;49.864;8.550;2023-06-24T16:47:14;33.70;29.20
10089;DHT22;51898;49.864;8.550;2023-06-24T16:50:16;33.20;29.50
10089;DHT22;51898;49.864;8.550;2023-06-24T16:53:18;32.80;29.60
10089;DHT22;51898;49.864;8.550;2023-06-24T16:56:19;32.30;30.20
10089;DHT22;51898;49.864;8.550;2023-06-24T16:59:21;31.80;31.10
10089;DHT22;51898;49.864;8.550;2023-06-24T17:02:23;31.30;31.90
10089;DHT22;51898;49.864;8.550;2023-06-24T17:05:25;31.10;32.30
10089;DHT22;51898;49.864;8.550;2023-06-24T17:08:27;31.30;31.80
10089;DHT22;51898;49.864;8.550;2023-06-24T17:11:28;31.60;31.90
10089;DHT22;51898;49.864;8.550;2023-06-24T17:14:30;32.10;31.30
10089;DHT22;51898;49.864;8.550;2023-06-24T17:17:32;32.40;30.90
10089;DHT22;51898;49.864;8.550;2023-06-24T17:20:34;32.90;30.40
10089;DHT22;51898;49.864;8.550;2023-06-24T17:23:36;33.50;30.00
10089;DHT22;51898;49.864;8.550;2023-06-24T17:26:38;34.00;29.40
10089;DHT22;51898;49.864;8.550;2023-06-24T17:29:41;34.30;29.20
10089;DHT22;51898;49.864;8.550;2023-06-24T17:32:42;34.50;28.90
10089;DHT22;51898;49.864;8.550;2023-06-24T17:35:44;34.60;28.80
10089;DHT22;51898;49.864;8.550;2023-06-24T17:38:46;34.70;28.80
10089;DHT22;51898;49.864;8.550;2023-06-24T17:41:47;34.40;28.70
10089;DHT22;51898;49.864;8.550;2023-06-24T17:44:49;34.40;28.80
10089;DHT22;51898;49.864;8.550;2023-06-24T17:47:51;34.50;28.60
10089;DHT22;51898;49.864;8.550;2023-06-24T17:50:53;34.50;28.70
10089;DHT22;51898;49.864;8.550;2023-06-24T17:53:54;34.70;28.70
10089;DHT22;51898;49.864;8.550;2023-06-24T17:56:56;34.30;28.90
10089;DHT22;51898;49.864;8.550;2023-06-24T17:59:57;33.50;29.70
10089;DHT22;51898;49.864;8.550;2023-06-24T18:02:59;33.50;29.60
10089;DHT22;51898;49.864;8.550;2023-06-24T18:06:01;33.50;29.80
10089;DHT22;51898;49.864;8.550;2023-06-24T18:09:04;33.50;29.80
10089;DHT22;51898;49.864;8.550;2023-06-24T18:12:05;33.20;30.00
10089;DHT22;51898;49.864;8.550;2023-06-24T18:15:08;32.90;30.50
10089;DHT22;51898;49.864;8.550;2023-06-24T18:18:09;32.60;31.00
10089;DHT22;51898;49.864;8.550;2023-06-24T18:21:12;32.50;31.20
10089;DHT22;51898;49.864;8.550;2023-06-24T18:24:13;32.40;31.30
10089;DHT22;51898;49.864;8.550;2023-06-24T18:27:15;32.30;31.30
10089;DHT22;51898;49.864;8.550;2023-06-24T18:30:17;32.20;31.50
10089;DHT22;51898;49.864;8.550;2023-06-24T18:33:18;31.90;31.80
10089;DHT22;51898;49.864;8.550;2023-06-24T18:36:20;31.70;32.10
10089;DHT22;51898;49.864;8.550;2023-06-24T18:39:22;31.60;32.20
10089;DHT22;51898;49.864;8.550;2023-06-24T18:42:24;31.50;32.40
10089;DHT22;51898;49.864;8.550;2023-06-24T18:45:32;31.50;32.40
10089;DHT22;51898;49.864;8.550;2023-06-24T18:48:36;31.30;32.40
10089;DHT22;51898;49.864;8.550;2023-06-24T18:51:49;31.00;32.80
10089;DHT22;51898;49.864;8.550;2023-06-24T18:54:50;30.70;33.20
10089;DHT22;51898;49.864;8.550;2023-06-24T18:57:52;30.30;33.90
10089;DHT22;51898;49.864;8.550;2023-06-24T19:00:54;29.80;34.60
10089;DHT22;51898;49.864;8.550;2023-06-24T19:03:56;29.50;34.80
10089;DHT22;51898;49.864;8.550;2023-06-24T19:06:58;29.10;35.20
10089;DHT22;51898;49.864;8.550;2023-06-24T19:10:01;28.90;35.70
10089;DHT22;51898;49.864;8.550;2023-06-24T19:13:05;28.70;36.10
10089;DHT22;51898;49.864;8.550;2023-06-24T19:16:07;28.50;36.20
10089;DHT22;51898;49.864;8.550;2023-06-24T19:19:08;28.40;36.50